sensor_id;sensor_type;location;lat;lon;timestamp;P1;durP1;ratioP1;P2;durP2;ratioP2
78322;SDS011;67583;50.616;-3.404;2023-12-07T00:01:04;25.40;;;6.05;;
78322;SDS011;67583;50.616;-3.404;2023-12-07T00:03:29;23.52;;;5.78;;
78322;SDS011;67583;50.616;-3.404;2023-12-07T00:05:55;20.42;;;5.07;;
78322;SDS011;67583;50.616;-3.404;2023-12-07T00:08:20;24.17;;;5.25;;
78322;SDS011;67583;50.616;-3.404;2023-12-07T00:10:45;24.23;;;6.15;;
78322;SDS011;67583;50.616;-3.404;2023-12-07T00:13:11;31.27;;;5.47;;
78322;SDS011;67583;50.616;-3.404;2023-12-07T00:15:36;32.90;;;6.03;;
78322;SDS011;67583;50.616;-3.404;2023-12-07T00:18:02;27.98;;;7.78;;
78322;SDS011;67583;50.616;-3.404;2023-12-07T00:20:28;21.55;;;6.50;;
78322;SDS011;67583;50.616;-3.404;2023-12-07T00:22:54;23.85;;;5.90;;
78322;SDS011;67583;50.616;-3.404;2023-12-07T00:25:20;27.98;;;6.43;;
78322;SDS011;67583;50.616;-3.404;2023-12-07T00:27:46;18.25;;;5.07;;
78322;SDS011;67583;50.616;-3.404;2023-12-07T00:30:11;19.50;;;5.28;;
78322;SDS011;67583;50.616;-3.404;2023-12-07T00:32:37;16.00;;;5.55;;
78322;SDS011;67583;50.616;-3.404;2023-12-07T00:35:02;18.63;;;5.13;;
78322;SDS011;67583;50.616;-3.404;2023-12-07T00:37:28;20.60;;;5.10;;
78322;SDS011;67583;50.616;-3.404;2023-12-07T00:39:54;20.67;;;5.93;;
78322;SDS011;67583;50.616;-3.404;2023-12-07T00:42:19;18.80;;;4.75;;
78322;SDS011;67583;50.616;-3.404;2023-12-07T00:44:44;15.32;;;5.55;;
78322;SDS011;67583;50.616;-3.404;2023-12-07T00:47:10;24.85;;;5.95;;
78322;SDS011;67583;50.616;-3.404;2023-12-07T00:49:39;16.80;;;6.15;;
78322;SDS011;67583;50.616;-3.404;2023-12-07T00:52:06;22.92;;;5.25;;
78322;SDS011;67583;50.616;-3.404;2023-12-07T00:54:31;27.38;;;6.07;;
78322;SDS011;67583;50.616;-3.404;2023-12-07T00:56:57;23.58;;;6.13;;
78322;SDS011;67583;50.616;-3.404;2023-12-07T00:59:23;19.17;;;5.15;;
78322;SDS011;67583;50.616;-3.404;2023-12-07T01:01:48;14.30;;;4.88;;
78322;SDS011;67583;50.616;-3.404;2023-12-07T01:04:14;23.45;;;4.95;;
78322;SDS011;67583;50.616;-3.404;2023-12-07T01:06:39;23.05;;;5.72;;
78322;SDS011;67583;50.616;-3.404;2023-12-07T01:09:04;14.65;;;4.75;;
78322;SDS011;67583;50.616;-3.404;2023-12-07T01:11:30;20.95;;;5.93;;
78322;SDS011;67583;50.616;-3.404;2023-12-07T01:13:55;25.05;;;6.72;;
78322;SDS011;67583;50.616;-3.404;2023-12-07T01:16:21;18.80;;;5.13;;
78322;SDS011;67583;50.616;-3.404;2023-12-07T01:18:46;21.52;;;5.40;;
78322;SDS011;67583;50.616;-3.404;2023-12-07T01:21:11;18.58;;;5.18;;
78322;SDS011;67583;50.616;-3.404;2023-12-07T01:23:37;13.95;;;4.25;;
78322;SDS011;67583;50.616;-3.404;2023-12-07T01:26:02;28.63;;;6.50;;
78322;SDS011;67583;50.616;-3.404;2023-12-07T01:28:28;24.00;;;5.47;;
78322;SDS011;67583;50.616;-3.404;2023-12-07T01:30:54;23.63;;;4.90;;
78322;SDS011;67583;50.616;-3.404;2023-12-07T01:33:19;20.25;;;5.68;;
78322;SDS011;67583;50.616;-3.404;2023-12-07T01:35:45;24.38;;;5.93;;
78322;SDS011;67583;50.616;-3.404;2023-12-07T01:38:10;27.92;;;5.63;;
78322;SDS011;67583;50.616;-3.404;2023-12-07T01:40:36;26.98;;;5.35;;
78322;SDS011;67583;50.616;-3.404;2023-12-07T01:43:01;19.67;;;6.05;;
78322;SDS011;67583;50.616;-3.404;2023-12-07T01:45:27;24.77;;;5.50;;
78322;SDS011;67583;50.616;-3.404;2023-12-07T01:47:52;41.03;;;5.10;;
78322;SDS011;67583;50.616;-3.404;2023-12-07T01:50:19;25.85;;;6.93;;
78322;SDS011;67583;50.616;-3.404;2023-12-07T01:52:48;29.60;;;6.78;;
78322;SDS011;67583;50.616;-3.404;2023-12-07T01:55:15;25.98;;;7.10;;
78322;SDS011;67583;50.616;-3.404;2023-12-07T01:57:41;36.85;;;7.65;;
78322;SDS011;67583;50.616;-3.404;2023-12-07T02:00:08;32.30;;;7.43;;
78322;SDS011;67583;50.616;-3.404;2023-12-07T02:02:34;30.27;;;6.45;;
78322;SDS011;67583;50.616;-3.404;2023-12-07T02:05:00;23.92;;;6.00;;
78322;SDS011;67583;50.616;-3.404;2023-12-07T02:07:26;44.42;;;8.02;;
78322;SDS011;67583;50.616;-3.404;2023-12-07T02:09:52;28.38;;;5.38;;
78322;SDS011;67583;50.616;-3.404;2023-12-07T02:12:17;29.60;;;7.20;;
78322;SDS011;67583;50.616;-3.404;2023-12-07T02:14:44;25.85;;;7.38;;
78322;SDS011;67583;50.616;-3.404;2023-12-07T02:17:14;25.10;;;7.35;;
78322;SDS011;67583;50.616;-3.404;2023-12-07T02:22:12;28.63;;;7.13;;
78322;SDS011;67583;50.616;-3.404;2023-12-07T02:24:45;29.52;;;7.60;;
78322;SDS011;67583;50.616;-3.404;2023-12-07T02:27:13;29.23;;;7.35;;
78322;SDS011;67583;50.616;-3.404;2023-12-07T02:29:38;45.20;;;7.93;;
78322;SDS011;67583;50.616;-3.404;2023-12-07T02:32:04;29.85;;;6.97;;
78322;SDS011;67583;50.616;-3.404;2023-12-07T02:34:29;29.55;;;7.05;;
78322;SDS011;67583;50.616;-3.404;2023-12-07T02:36:54;38.83;;;9.25;;
78322;SDS011;67583;50.616;-3.404;2023-12-07T02:39:22;24.38;;;7.32;;
78322;SDS011;67583;50.616;-3.404;2023-12-07T02:41:48;30.23;;;6.70;;
78322;SDS011;67583;50.616;-3.404;2023-12-07T02:44:14;32.45;;;7.03;;
78322;SDS011;67583;50.616;-3.404;2023-12-07T02:46:40;38.85;;;7.97;;
78322;SDS011;67583;50.616;-3.404;2023-12-07T02:49:05;28.13;;;6.95;;
78322;SDS011;67583;50.616;-3.404;2023-12-07T02:51:30;28.25;;;8.23;;
78322;SDS011;67583;50.616;-3.404;2023-12-07T02:53:56;17.55;;;7.03;;
78322;SDS011;67583;50.616;-3.404;2023-12-07T02:56:21;25.90;;;7.45;;
78322;SDS011;67583;50.616;-3.404;2023-12-07T02:58:47;33.17;;;6.90;;
78322;SDS011;67583;50.616;-3.404;2023-12-07T03:01:12;30.45;;;8.45;;
78322;SDS011;67583;50.616;-3.404;2023-12-07T03:03:37;37.90;;;8.77;;
78322;SDS011;67583;50.616;-3.404;2023-12-07T03:06:03;32.47;;;8.32;;
78322;SDS011;67583;50.616;-3.404;2023-12-07T03:08:29;30.17;;;7.63;;
78322;SDS011;67583;50.616;-3.404;2023-12-07T03:10:55;31.38;;;8.90;;
78322;SDS011;67583;50.616;-3.404;2023-12-07T03:13:20;32.33;;;8.30;;
78322;SDS011;67583;50.616;-3.404;2023-12-07T03:15:45;26.20;;;7.35;;
78322;SDS011;67583;50.616;-3.404;2023-12-07T03:18:11;30.70;;;7.88;;
78322;SDS011;67583;50.616;-3.404;2023-12-07T03:20:36;35.33;;;8.68;;
78322;SDS011;67583;50.616;-3.404;2023-12-07T03:23:01;29.52;;;8.55;;
78322;SDS011;67583;50.616;-3.404;2023-12-07T03:25:27;32.25;;;8.85;;
78322;SDS011;67583;50.616;-3.404;2023-12-07T03:27:52;33.67;;;8.10;;
78322;SDS011;67583;50.616;-3.404;2023-12-07T03:30:18;33.47;;;10.18;;
78322;SDS011;67583;50.616;-3.404;2023-12-07T03:32:43;41.63;;;10.10;;
78322;SDS011;67583;50.616;-3.404;2023-12-07T03:35:08;31.75;;;7.97;;
78322;SDS011;67583;50.616;-3.404;2023-12-07T03:37:34;23.20;;;8.40;;
78322;SDS011;67583;50.616;-3.404;2023-12-07T03:39:59;39.35;;;9.15;;
78322;SDS011;67583;50.616;-3.404;2023-12-07T03:42:25;30.42;;;9.63;;
78322;SDS011;67583;50.616;-3.404;2023-12-07T03:44:50;36.40;;;9.02;;
78322;SDS011;67583;50.616;-3.404;2023-12-07T03:47:15;25.20;;;7.55;;
78322;SDS011;67583;50.616;-3.404;2023-12-07T03:49:41;29.73;;;7.80;;
78322;SDS011;67583;50.616;-3.404;2023-12-07T03:52:07;35.15;;;8.27;;
78322;SDS011;67583;50.616;-3.404;2023-12-07T03:54:32;26.25;;;7.55;;
78322;SDS011;67583;50.616;-3.404;2023-12-07T03:56:57;27.92;;;8.27;;
78322;SDS011;67583;50.616;-3.404;2023-12-07T03:59:23;51.45;;;9.98;;
78322;SDS011;67583;50.616;-3.404;2023-12-07T04:01:48;37.45;;;9.07;;
78322;SDS011;67583;50.616;-3.404;2023-12-07T04:04:14;48.58;;;10.63;;
78322;SDS011;67583;50.616;-3.404;2023-12-07T04:06:40;33.22;;;9.52;;
78322;SDS011;67583;50.616;-3.404;2023-12-07T04:09:05;33.92;;;8.45;;
78322;SDS011;67583;50.616;-3.404;2023-12-07T04:11:30;34.58;;;9.27;;
78322;SDS011;67583;50.616;-3.404;2023-12-07T04:13:56;30.73;;;8.82;;
78322;SDS011;67583;50.616;-3.404;2023-12-07T04:16:21;46.88;;;9.60;;
78322;SDS011;67583;50.616;-3.404;2023-12-07T04:18:47;41.97;;;11.55;;
78322;SDS011;67583;50.616;-3.404;2023-12-07T04:21:12;40.22;;;8.38;;
78322;SDS011;67583;50.616;-3.404;2023-12-07T04:26:03;37.80;;;8.63;;
78322;SDS011;67583;50.616;-3.404;2023-12-07T04:28:28;41.17;;;10.95;;
78322;SDS011;67583;50.616;-3.404;2023-12-07T04:30:53;41.72;;;9.63;;
78322;SDS011;67583;50.616;-3.404;2023-12-07T04:33:19;43.42;;;9.98;;
78322;SDS011;67583;50.616;-3.404;2023-12-07T04:35:45;46.83;;;9.60;;
78322;SDS011;67583;50.616;-3.404;2023-12-07T04:38:10;33.80;;;8.27;;
78322;SDS011;67583;50.616;-3.404;2023-12-07T04:40:35;44.50;;;8.73;;
78322;SDS011;67583;50.616;-3.404;2023-12-07T04:43:01;37.90;;;10.10;;
78322;SDS011;67583;50.616;-3.404;2023-12-07T04:45:26;36.47;;;8.65;;
78322;SDS011;67583;50.616;-3.404;2023-12-07T04:47:51;43.17;;;8.57;;
78322;SDS011;67583;50.616;-3.404;2023-12-07T04:50:17;35.42;;;8.60;;
78322;SDS011;67583;50.616;-3.404;2023-12-07T04:52:42;48.55;;;9.73;;
78322;SDS011;67583;50.616;-3.404;2023-12-07T04:55:08;42.10;;;8.23;;
78322;SDS011;67583;50.616;-3.404;2023-12-07T04:57:33;26.85;;;7.28;;
78322;SDS011;67583;50.616;-3.404;2023-12-07T04:59:59;36.33;;;7.82;;
78322;SDS011;67583;50.616;-3.404;2023-12-07T05:02:25;33.83;;;8.43;;
78322;SDS011;67583;50.616;-3.404;2023-12-07T05:04:52;40.88;;;8.10;;
78322;SDS011;67583;50.616;-3.404;2023-12-07T05:07:18;37.95;;;8.32;;
78322;SDS011;67583;50.616;-3.404;2023-12-07T05:09:43;25.52;;;6.65;;
78322;SDS011;67583;50.616;-3.404;2023-12-07T05:12:08;24.10;;;6.15;;
78322;SDS011;67583;50.616;-3.404;2023-12-07T05:14:34;40.70;;;6.60;;
78322;SDS011;67583;50.616;-3.404;2023-12-07T05:17:02;25.05;;;6.75;;
78322;SDS011;67583;50.616;-3.404;2023-12-07T05:19:28;29.98;;;7.55;;
78322;SDS011;67583;50.616;-3.404;2023-12-07T05:21:53;29.55;;;6.30;;
78322;SDS011;67583;50.616;-3.404;2023-12-07T05:24:18;28.80;;;7.60;;
78322;SDS011;67583;50.616;-3.404;2023-12-07T05:26:45;34.60;;;6.55;;
78322;SDS011;67583;50.616;-3.404;2023-12-07T05:29:14;26.92;;;6.82;;
78322;SDS011;67583;50.616;-3.404;2023-12-07T05:31:40;32.83;;;8.60;;
78322;SDS011;67583;50.616;-3.404;2023-12-07T05:34:06;26.27;;;6.18;;
78322;SDS011;67583;50.616;-3.404;2023-12-07T05:36:32;37.38;;;7.78;;
78322;SDS011;67583;50.616;-3.404;2023-12-07T05:38:57;15.13;;;6.13;;
78322;SDS011;67583;50.616;-3.404;2023-12-07T05:41:23;32.55;;;6.97;;
78322;SDS011;67583;50.616;-3.404;2023-12-07T05:43:48;33.97;;;7.03;;
78322;SDS011;67583;50.616;-3.404;2023-12-07T05:46:14;37.65;;;7.70;;
78322;SDS011;67583;50.616;-3.404;2023-12-07T05:48:39;32.90;;;7.22;;
78322;SDS011;67583;50.616;-3.404;2023-12-07T05:51:05;26.80;;;6.47;;
78322;SDS011;67583;50.616;-3.404;2023-12-07T05:53:30;27.38;;;6.78;;
78322;SDS011;67583;50.616;-3.404;2023-12-07T05:55:57;33.67;;;7.47;;
78322;SDS011;67583;50.616;-3.404;2023-12-07T05:58:23;27.63;;;6.47;;
78322;SDS011;67583;50.616;-3.404;2023-12-07T06:00:49;35.70;;;9.00;;
78322;SDS011;67583;50.616;-3.404;2023-12-07T06:03:14;29.98;;;7.57;;
78322;SDS011;67583;50.616;-3.404;2023-12-07T06:05:40;32.95;;;8.68;;
78322;SDS011;67583;50.616;-3.404;2023-12-07T06:08:06;32.50;;;6.85;;
78322;SDS011;67583;50.616;-3.404;2023-12-07T06:10:31;47.97;;;7.93;;
78322;SDS011;67583;50.616;-3.404;2023-12-07T06:12:57;45.50;;;7.65;;
78322;SDS011;67583;50.616;-3.404;2023-12-07T06:15:25;42.72;;;6.78;;
78322;SDS011;67583;50.616;-3.404;2023-12-07T06:17:51;38.22;;;8.38;;
78322;SDS011;67583;50.616;-3.404;2023-12-07T06:20:16;31.30;;;8.80;;
78322;SDS011;67583;50.616;-3.404;2023-12-07T06:22:42;29.73;;;6.70;;
78322;SDS011;67583;50.616;-3.404;2023-12-07T06:25:07;42.30;;;7.70;;
78322;SDS011;67583;50.616;-3.404;2023-12-07T06:27:34;31.17;;;6.60;;
78322;SDS011;67583;50.616;-3.404;2023-12-07T06:30:00;28.58;;;6.07;;
78322;SDS011;67583;50.616;-3.404;2023-12-07T06:32:26;35.70;;;6.13;;
78322;SDS011;67583;50.616;-3.404;2023-12-07T06:34:52;26.52;;;5.30;;
78322;SDS011;67583;50.616;-3.404;2023-12-07T06:37:17;29.42;;;6.63;;
78322;SDS011;67583;50.616;-3.404;2023-12-07T06:39:45;34.33;;;7.78;;
78322;SDS011;67583;50.616;-3.404;2023-12-07T06:42:10;29.60;;;6.28;;
78322;SDS011;67583;50.616;-3.404;2023-12-07T06:44:36;30.77;;;6.40;;
78322;SDS011;67583;50.616;-3.404;2023-12-07T06:47:01;32.88;;;7.47;;
78322;SDS011;67583;50.616;-3.404;2023-12-07T06:49:29;31.30;;;6.65;;
78322;SDS011;67583;50.616;-3.404;2023-12-07T06:51:55;41.05;;;8.68;;
78322;SDS011;67583;50.616;-3.404;2023-12-07T06:54:21;30.35;;;7.03;;
78322;SDS011;67583;50.616;-3.404;2023-12-07T06:56:47;23.75;;;5.50;;
78322;SDS011;67583;50.616;-3.404;2023-12-07T06:59:12;26.45;;;5.40;;
78322;SDS011;67583;50.616;-3.404;2023-12-07T07:01:38;40.15;;;7.30;;
78322;SDS011;67583;50.616;-3.404;2023-12-07T07:04:03;25.40;;;6.38;;
78322;SDS011;67583;50.616;-3.404;2023-12-07T07:06:29;29.30;;;6.10;;
78322;SDS011;67583;50.616;-3.404;2023-12-07T07:08:54;33.22;;;8.25;;
78322;SDS011;67583;50.616;-3.404;2023-12-07T07:11:20;39.55;;;7.88;;
78322;SDS011;67583;50.616;-3.404;2023-12-07T07:13:45;45.30;;;8.55;;
78322;SDS011;67583;50.616;-3.404;2023-12-07T07:16:10;37.58;;;7.95;;
78322;SDS011;67583;50.616;-3.404;2023-12-07T07:18:39;39.15;;;7.88;;
78322;SDS011;67583;50.616;-3.404;2023-12-07T07:21:05;40.00;;;7.97;;
78322;SDS011;67583;50.616;-3.404;2023-12-07T07:23:34;27.63;;;8.15;;
78322;SDS011;67583;50.616;-3.404;2023-12-07T07:26:00;29.92;;;6.50;;
78322;SDS011;67583;50.616;-3.404;2023-12-07T07:28:25;41.33;;;10.18;;
78322;SDS011;67583;50.616;-3.404;2023-12-07T07:30:51;27.95;;;7.25;;
78322;SDS011;67583;50.616;-3.404;2023-12-07T07:33:16;30.00;;;6.93;;
78322;SDS011;67583;50.616;-3.404;2023-12-07T07:35:42;30.88;;;6.97;;
78322;SDS011;67583;50.616;-3.404;2023-12-07T07:38:07;45.28;;;7.18;;
78322;SDS011;67583;50.616;-3.404;2023-12-07T07:40:32;34.42;;;8.02;;
78322;SDS011;67583;50.616;-3.404;2023-12-07T07:42:58;40.35;;;9.57;;
78322;SDS011;67583;50.616;-3.404;2023-12-07T07:45:23;39.47;;;8.30;;
78322;SDS011;67583;50.616;-3.404;2023-12-07T07:47:49;40.42;;;8.05;;
78322;SDS011;67583;50.616;-3.404;2023-12-07T07:50:15;33.50;;;7.32;;
78322;SDS011;67583;50.616;-3.404;2023-12-07T07:52:41;47.22;;;8.73;;
78322;SDS011;67583;50.616;-3.404;2023-12-07T07:55:07;41.63;;;7.82;;
78322;SDS011;67583;50.616;-3.404;2023-12-07T07:57:33;36.50;;;7.47;;
78322;SDS011;67583;50.616;-3.404;2023-12-07T07:59:58;33.65;;;7.95;;
78322;SDS011;67583;50.616;-3.404;2023-12-07T08:02:24;39.33;;;8.70;;
78322;SDS011;67583;50.616;-3.404;2023-12-07T08:04:49;37.00;;;8.77;;
78322;SDS011;67583;50.616;-3.404;2023-12-07T08:07:16;34.90;;;8.48;;
78322;SDS011;67583;50.616;-3.404;2023-12-07T08:09:42;25.00;;;7.47;;
78322;SDS011;67583;50.616;-3.404;2023-12-07T08:12:07;30.75;;;7.45;;
78322;SDS011;67583;50.616;-3.404;2023-12-07T08:14:35;52.45;;;9.88;;
78322;SDS011;67583;50.616;-3.404;2023-12-07T08:17:00;52.65;;;10.68;;
78322;SDS011;67583;50.616;-3.404;2023-12-07T08:19:26;46.95;;;8.23;;
78322;SDS011;67583;50.616;-3.404;2023-12-07T08:21:51;38.83;;;9.85;;
78322;SDS011;67583;50.616;-3.404;2023-12-07T08:24:17;38.97;;;6.60;;
78322;SDS011;67583;50.616;-3.404;2023-12-07T08:26:42;29.80;;;6.95;;
78322;SDS011;67583;50.616;-3.404;2023-12-07T08:29:08;48.80;;;7.38;;
78322;SDS011;67583;50.616;-3.404;2023-12-07T08:31:33;35.05;;;6.65;;
78322;SDS011;67583;50.616;-3.404;2023-12-07T08:33:59;40.03;;;9.52;;
78322;SDS011;67583;50.616;-3.404;2023-12-07T08:36:25;56.72;;;7.07;;
78322;SDS011;67583;50.616;-3.404;2023-12-07T08:38:51;39.80;;;9.30;;
78322;SDS011;67583;50.616;-3.404;2023-12-07T08:41:16;52.70;;;8.32;;
78322;SDS011;67583;50.616;-3.404;2023-12-07T08:43:42;31.25;;;6.85;;
78322;SDS011;67583;50.616;-3.404;2023-12-07T08:46:07;45.65;;;8.93;;
78322;SDS011;67583;50.616;-3.404;2023-12-07T08:48:33;31.60;;;7.97;;
78322;SDS011;67583;50.616;-3.404;2023-12-07T08:50:59;37.35;;;7.45;;
78322;SDS011;67583;50.616;-3.404;2023-12-07T08:53:25;38.17;;;6.72;;
78322;SDS011;67583;50.616;-3.404;2023-12-07T08:55:51;28.17;;;7.00;;
78322;SDS011;67583;50.616;-3.404;2023-12-07T08:58:18;34.88;;;10.73;;
78322;SDS011;67583;50.616;-3.404;2023-12-07T09:00:43;42.45;;;8.98;;
78322;SDS011;67583;50.616;-3.404;2023-12-07T09:03:09;32.25;;;6.95;;
78322;SDS011;67583;50.616;-3.404;2023-12-07T09:05:34;33.35;;;9.15;;
78322;SDS011;67583;50.616;-3.404;2023-12-07T09:08:00;38.35;;;6.72;;
78322;SDS011;67583;50.616;-3.404;2023-12-07T09:10:25;37.97;;;9.88;;
78322;SDS011;67583;50.616;-3.404;2023-12-07T09:12:51;50.70;;;8.57;;
78322;SDS011;67583;50.616;-3.404;2023-12-07T09:15:16;47.30;;;8.98;;
78322;SDS011;67583;50.616;-3.404;2023-12-07T09:17:41;43.90;;;6.63;;
78322;SDS011;67583;50.616;-3.404;2023-12-07T09:20:08;41.67;;;6.28;;
78322;SDS011;67583;50.616;-3.404;2023-12-07T09:22:42;32.03;;;6.68;;
78322;SDS011;67583;50.616;-3.404;2023-12-07T09:25:08;31.75;;;6.35;;
78322;SDS011;67583;50.616;-3.404;2023-12-07T09:27:34;36.00;;;8.15;;
78322;SDS011;67583;50.616;-3.404;2023-12-07T09:30:00;35.38;;;8.57;;
78322;SDS011;67583;50.616;-3.404;2023-12-07T09:32:26;22.83;;;5.28;;
78322;SDS011;67583;50.616;-3.404;2023-12-07T09:34:53;40.13;;;6.78;;
78322;SDS011;67583;50.616;-3.404;2023-12-07T09:37:18;29.73;;;6.60;;
78322;SDS011;67583;50.616;-3.404;2023-12-07T09:39:44;39.88;;;8.48;;
78322;SDS011;67583;50.616;-3.404;2023-12-07T09:42:10;41.97;;;7.28;;
78322;SDS011;67583;50.616;-3.404;2023-12-07T09:44:35;29.88;;;6.53;;
78322;SDS011;67583;50.616;-3.404;2023-12-07T09:47:01;28.35;;;6.32;;
78322;SDS011;67583;50.616;-3.404;2023-12-07T09:49:26;35.10;;;6.97;;
78322;SDS011;67583;50.616;-3.404;2023-12-07T09:51:52;44.58;;;8.80;;
78322;SDS011;67583;50.616;-3.404;2023-12-07T09:54:17;27.63;;;6.45;;
78322;SDS011;67583;50.616;-3.404;2023-12-07T09:56:43;35.53;;;7.60;;
78322;SDS011;67583;50.616;-3.404;2023-12-07T09:59:09;29.15;;;6.15;;
78322;SDS011;67583;50.616;-3.404;2023-12-07T10:01:34;34.72;;;6.72;;
78322;SDS011;67583;50.616;-3.404;2023-12-07T10:04:20;26.05;;;5.05;;
78322;SDS011;67583;50.616;-3.404;2023-12-07T10:06:47;36.88;;;6.28;;
78322;SDS011;67583;50.616;-3.404;2023-12-07T10:09:14;27.60;;;6.68;;
78322;SDS011;67583;50.616;-3.404;2023-12-07T10:11:40;24.65;;;5.05;;
78322;SDS011;67583;50.616;-3.404;2023-12-07T10:14:06;32.15;;;6.63;;
78322;SDS011;67583;50.616;-3.404;2023-12-07T10:16:32;38.05;;;7.10;;
78322;SDS011;67583;50.616;-3.404;2023-12-07T10:19:21;32.63;;;5.72;;
78322;SDS011;67583;50.616;-3.404;2023-12-07T10:21:50;19.15;;;4.43;;
78322;SDS011;67583;50.616;-3.404;2023-12-07T10:24:17;26.25;;;5.03;;
78322;SDS011;67583;50.616;-3.404;2023-12-07T10:26:44;29.15;;;6.63;;
78322;SDS011;67583;50.616;-3.404;2023-12-07T10:29:09;35.05;;;5.82;;
78322;SDS011;67583;50.616;-3.404;2023-12-07T10:31:36;27.05;;;6.35;;
78322;SDS011;67583;50.616;-3.404;2023-12-07T10:34:02;48.38;;;8.25;;
78322;SDS011;67583;50.616;-3.404;2023-12-07T10:36:27;35.22;;;7.05;;
78322;SDS011;67583;50.616;-3.404;2023-12-07T10:38:53;43.15;;;8.02;;
78322;SDS011;67583;50.616;-3.404;2023-12-07T10:41:19;47.58;;;6.90;;
78322;SDS011;67583;50.616;-3.404;2023-12-07T10:43:48;32.65;;;5.35;;
78322;SDS011;67583;50.616;-3.404;2023-12-07T10:46:34;38.95;;;5.93;;
78322;SDS011;67583;50.616;-3.404;2023-12-07T10:49:00;26.67;;;6.43;;
78322;SDS011;67583;50.616;-3.404;2023-12-07T10:51:31;25.88;;;4.35;;
78322;SDS011;67583;50.616;-3.404;2023-12-07T10:53:58;36.15;;;7.72;;
78322;SDS011;67583;50.616;-3.404;2023-12-07T10:56:39;33.60;;;5.90;;
78322;SDS011;67583;50.616;-3.404;2023-12-07T10:59:11;32.00;;;5.55;;
78322;SDS011;67583;50.616;-3.404;2023-12-07T11:01:40;56.50;;;6.75;;
78322;SDS011;67583;50.616;-3.404;2023-12-07T11:04:07;43.17;;;6.25;;
78322;SDS011;67583;50.616;-3.404;2023-12-07T11:06:36;30.65;;;5.78;;
78322;SDS011;67583;50.616;-3.404;2023-12-07T11:09:04;39.00;;;6.38;;
78322;SDS011;67583;50.616;-3.404;2023-12-07T11:11:39;24.80;;;4.65;;
78322;SDS011;67583;50.616;-3.404;2023-12-07T11:14:18;24.75;;;3.88;;
78322;SDS011;67583;50.616;-3.404;2023-12-07T11:16:45;34.40;;;6.28;;
78322;SDS011;67583;50.616;-3.404;2023-12-07T11:21:57;47.97;;;8.35;;
78322;SDS011;67583;50.616;-3.404;2023-12-07T11:24:23;27.65;;;5.22;;
78322;SDS011;67583;50.616;-3.404;2023-12-07T11:26:51;36.30;;;6.25;;
78322;SDS011;67583;50.616;-3.404;2023-12-07T11:29:19;39.40;;;6.43;;
78322;SDS011;67583;50.616;-3.404;2023-12-07T11:31:45;32.78;;;5.57;;
78322;SDS011;67583;50.616;-3.404;2023-12-07T11:34:11;33.33;;;6.47;;
78322;SDS011;67583;50.616;-3.404;2023-12-07T11:36:39;31.20;;;5.63;;
78322;SDS011;67583;50.616;-3.404;2023-12-07T11:41:34;29.27;;;5.35;;
78322;SDS011;67583;50.616;-3.404;2023-12-07T11:44:00;33.90;;;5.00;;
78322;SDS011;67583;50.616;-3.404;2023-12-07T11:46:26;44.97;;;5.97;;
78322;SDS011;67583;50.616;-3.404;2023-12-07T11:48:51;40.63;;;5.60;;
78322;SDS011;67583;50.616;-3.404;2023-12-07T11:51:17;21.95;;;5.45;;
78322;SDS011;67583;50.616;-3.404;2023-12-07T11:53:43;29.40;;;5.43;;
78322;SDS011;67583;50.616;-3.404;2023-12-07T11:56:09;41.45;;;6.07;;
78322;SDS011;67583;50.616;-3.404;2023-12-07T11:58:36;27.52;;;5.45;;
78322;SDS011;67583;50.616;-3.404;2023-12-07T12:01:02;33.85;;;5.78;;
78322;SDS011;67583;50.616;-3.404;2023-12-07T12:03:28;22.75;;;3.97;;
78322;SDS011;67583;50.616;-3.404;2023-12-07T12:05:56;33.05;;;4.75;;
78322;SDS011;67583;50.616;-3.404;2023-12-07T12:08:21;28.73;;;5.40;;
78322;SDS011;67583;50.616;-3.404;2023-12-07T12:10:47;43.47;;;6.57;;
78322;SDS011;67583;50.616;-3.404;2023-12-07T12:13:14;31.60;;;4.93;;
78322;SDS011;67583;50.616;-3.404;2023-12-07T12:15:40;36.42;;;6.10;;
78322;SDS011;67583;50.616;-3.404;2023-12-07T12:18:06;34.40;;;4.93;;
78322;SDS011;67583;50.616;-3.404;2023-12-07T12:20:32;27.48;;;6.60;;
78322;SDS011;67583;50.616;-3.404;2023-12-07T12:22:58;41.13;;;7.15;;
78322;SDS011;67583;50.616;-3.404;2023-12-07T12:25:26;35.50;;;6.55;;
78322;SDS011;67583;50.616;-3.404;2023-12-07T12:27:59;32.17;;;7.03;;
78322;SDS011;67583;50.616;-3.404;2023-12-07T12:30:27;34.42;;;6.78;;
78322;SDS011;67583;50.616;-3.404;2023-12-07T12:32:53;45.70;;;5.68;;
78322;SDS011;67583;50.616;-3.404;2023-12-07T12:35:18;38.30;;;7.05;;
78322;SDS011;67583;50.616;-3.404;2023-12-07T12:37:45;42.78;;;6.47;;
78322;SDS011;67583;50.616;-3.404;2023-12-07T12:40:11;36.03;;;5.63;;
78322;SDS011;67583;50.616;-3.404;2023-12-07T12:42:41;45.40;;;6.63;;
78322;SDS011;67583;50.616;-3.404;2023-12-07T12:45:08;32.58;;;5.75;;
78322;SDS011;67583;50.616;-3.404;2023-12-07T12:47:33;25.33;;;4.68;;
78322;SDS011;67583;50.616;-3.404;2023-12-07T12:50:00;31.15;;;7.82;;
78322;SDS011;67583;50.616;-3.404;2023-12-07T12:52:29;43.03;;;6.72;;
78322;SDS011;67583;50.616;-3.404;2023-12-07T12:54:55;31.77;;;6.97;;
78322;SDS011;67583;50.616;-3.404;2023-12-07T12:57:22;30.08;;;6.10;;
78322;SDS011;67583;50.616;-3.404;2023-12-07T12:59:47;33.25;;;6.38;;
78322;SDS011;67583;50.616;-3.404;2023-12-07T13:02:13;46.65;;;4.90;;
78322;SDS011;67583;50.616;-3.404;2023-12-07T13:04:39;45.78;;;9.05;;
78322;SDS011;67583;50.616;-3.404;2023-12-07T13:07:05;39.13;;;6.50;;
78322;SDS011;67583;50.616;-3.404;2023-12-07T13:09:30;42.65;;;6.63;;
78322;SDS011;67583;50.616;-3.404;2023-12-07T13:11:56;29.90;;;5.45;;
78322;SDS011;67583;50.616;-3.404;2023-12-07T13:14:22;24.42;;;7.00;;
78322;SDS011;67583;50.616;-3.404;2023-12-07T13:16:48;22.38;;;4.90;;
78322;SDS011;67583;50.616;-3.404;2023-12-07T13:19:13;30.67;;;5.05;;
78322;SDS011;67583;50.616;-3.404;2023-12-07T13:24:04;30.70;;;5.35;;
78322;SDS011;67583;50.616;-3.404;2023-12-07T13:26:30;42.35;;;6.32;;
78322;SDS011;67583;50.616;-3.404;2023-12-07T13:28:56;25.35;;;5.18;;
78322;SDS011;67583;50.616;-3.404;2023-12-07T13:31:21;33.60;;;5.53;;
78322;SDS011;67583;50.616;-3.404;2023-12-07T13:33:47;22.15;;;5.05;;
78322;SDS011;67583;50.616;-3.404;2023-12-07T13:36:12;21.80;;;4.38;;
78322;SDS011;67583;50.616;-3.404;2023-12-07T13:38:39;27.83;;;6.20;;
78322;SDS011;67583;50.616;-3.404;2023-12-07T13:41:05;22.52;;;4.00;;
78322;SDS011;67583;50.616;-3.404;2023-12-07T13:43:32;32.80;;;4.65;;
78322;SDS011;67583;50.616;-3.404;2023-12-07T13:45:58;20.27;;;4.43;;
78322;SDS011;67583;50.616;-3.404;2023-12-07T13:48:24;16.65;;;4.05;;
78322;SDS011;67583;50.616;-3.404;2023-12-07T13:50:49;38.22;;;5.75;;
78322;SDS011;67583;50.616;-3.404;2023-12-07T13:53:15;33.30;;;4.60;;
78322;SDS011;67583;50.616;-3.404;2023-12-07T13:55:40;30.45;;;5.57;;
78322;SDS011;67583;50.616;-3.404;2023-12-07T13:58:06;34.88;;;4.60;;
78322;SDS011;67583;50.616;-3.404;2023-12-07T14:00:37;29.85;;;5.72;;
78322;SDS011;67583;50.616;-3.404;2023-12-07T14:03:03;38.65;;;6.07;;
78322;SDS011;67583;50.616;-3.404;2023-12-07T14:05:31;35.30;;;4.93;;
78322;SDS011;67583;50.616;-3.404;2023-12-07T14:07:56;27.23;;;5.78;;
78322;SDS011;67583;50.616;-3.404;2023-12-07T14:10:22;23.27;;;5.53;;
78322;SDS011;67583;50.616;-3.404;2023-12-07T14:12:47;22.50;;;5.10;;
78322;SDS011;67583;50.616;-3.404;2023-12-07T14:15:13;22.17;;;4.55;;
78322;SDS011;67583;50.616;-3.404;2023-12-07T14:17:38;17.30;;;5.35;;
78322;SDS011;67583;50.616;-3.404;2023-12-07T14:20:04;35.47;;;5.97;;
78322;SDS011;67583;50.616;-3.404;2023-12-07T14:22:32;28.77;;;5.35;;
78322;SDS011;67583;50.616;-3.404;2023-12-07T14:24:57;29.13;;;5.07;;
78322;SDS011;67583;50.616;-3.404;2023-12-07T14:27:23;23.02;;;4.72;;